This demonstration page uses our WeatherBlox Daily Observations layout. Learn more.

38.89511, -77.03637

Hourly Observations for November 19, 2017

Temp ( °F °C ) Dew Point ( °F °C ) Humidity (%) Winds ( mph kmh ) Pressure ( in mb ) Visibility ( mi km ) Precip ( " mm )
12:52 am 00:52 Mostly Cloudy with Light Rain 64 17.8 51 10.6 63 63 SSW 23 37 32.34 1095 10 16.09344 0.001 0.001
1:52 am 01:52 Cloudy with Light Rain 60 15.6 55 12.8 84 84 SSW 12 19 32.34 1095 10 16.09344 0.04 1.016
2:52 am 02:52 Cloudy 58 14.4 55 12.8 90 90 S 15 24 32.25 1092 10 16.09344 0.01 0.254
3:52 am 03:52 Cloudy 61 16.1 55 12.8 81 81 SSW 18 30 32.28 1093 10 16.09344 0.001 0.001
4:52 am 04:52 Cloudy with Light Rain 61 16.1 56 13.3 84 84 W 13 20 32.34 1095 10 16.09344 0.02 0.508
5:10 am 05:10 Cloudy 59 15 49 9.4 69 69 NW 20 31 29.41 996 10 16.09344 0.001 0.001
5:52 am 05:52 Mostly Clear 54 12.2 38 3.3 55 55 WNW 29 46 32.42 1098 10 16.09344 0.001 0.001
6:52 am 06:52 Mostly Clear 50 10 34 1.1 54 54 WNW 17 28 29.56 1001 10 16.09344 0 0
7:52 am 07:52 Mostly Sunny 49 9.4 32 0 52 52 WNW 23 37 29.62 1003 10 16.09344 0 0
8:52 am 08:52 Partly Cloudy 50 10 33 0.6 52 52 WNW 21 33 29.65 1004 10 16.09344 0 0
9:52 am 09:52 Mostly Cloudy 51 10.6 34 1.1 52 52 NW 20 31 29.68 1005 10 16.09344 0 0
10:52 am 10:52 Mostly Cloudy 51 10.6 33 0.6 50 50 NW 20 31 29.74 1007 10 16.09344 0 0
11:52 am 11:52 Mostly Cloudy 51 10.6 30 -1.1 44 44 NW 21 33 29.74 1007 10 16.09344 0 0
12:52 pm 12:52 Mostly Cloudy 51 10.6 29 -1.7 43 43 WNW 16 26 29.74 1007 10 16.09344 0 0
1:52 pm 13:52 Mostly Cloudy 52 11.1 28 -2.2 40 40 NW 16 26 29.74 1007 10 16.09344 0 0
2:52 pm 14:52 Mostly Cloudy 50 10 28 -2.2 43 43 WNW 24 39 29.77 1008 10 16.09344 0 0
3:52 pm 15:52 Cloudy 48 8.9 27 -2.8 44 44 WNW 15 24 29.8 1009 10 16.09344 0 0
4:52 pm 16:52 Cloudy 48 8.9 28 -2.2 46 46 WNW 17 28 29.83 1010 10 16.09344 0 0
5:52 pm 17:52 Cloudy 47 8.3 25 -3.9 42 42 W 9 15 29.85 1011 10 16.09344 0 0
6:52 pm 18:52 Mostly Cloudy 46 7.8 26 -3.3 46 46 WNW 12 19 29.88 1012 10 16.09344 0 0
7:52 pm 19:52 Partly Cloudy 46 7.8 27 -2.8 47 47 W 12 19 29.88 1012 10 16.09344 0 0
8:52 pm 20:52 Mostly Cloudy 46 7.8 28 -2.2 50 50 WNW 15 24 29.91 1013 10 16.09344 0 0
9:52 pm 21:52 Mostly Cloudy 45 7.2 27 -2.8 49 49 WNW 14 22 29.94 1014 10 16.09344 0 0
10:52 pm 22:52 Mostly Cloudy 45 7.2 27 -2.8 49 49 W 15 24 29.94 1014 10 16.09344 0 0
11:52 pm 23:52 Mostly Cloudy 43 6.1 28 -2.2 56 56 NW 6 9 29.97 1015 10 16.09344 0 0

Powered by AerisWeather